Time;durP1;ratioP1;P1;durP2;ratioP2;P2;SDS_P1;SDS_P2;PMS_P1;PMS_P2;Temp;Humidity;BMP_temperature;BMP_pressure;BME280_temperature;BME280_humidity;BME280_pressure;Samples;Min_cycle;Max_cycle;Signal;HPM_P1;HPM_P2
2022/05/26 00:01:19;;;;;;;;;;;15.60;93.90;;;;;;4982304;28;19934;-84
2022/05/26 00:03:47;;;;;;;;;;;15.60;94.00;;;;;;4990700;28;20010;-85
2022/05/26 00:06:16;;;;;;;;;;;15.60;94.00;;;;;;4974161;28;19957;-82
2022/05/26 00:08:44;;;;;;;;;;;15.60;94.00;;;;;;4973891;28;19989;-83
2022/05/26 00:11:13;;;;;;;;;;;15.50;93.90;;;;;;4968739;28;20408;-84
2022/05/26 00:13:41;;;;;;;;;;;15.50;93.90;;;;;;4976866;28;19949;-83
2022/05/26 00:16:08;;;;;;;;;;;15.50;93.90;;;;;;4978917;28;19934;-84
2022/05/26 00:18:36;;;;;;;;;;;15.40;93.90;;;;;;4994556;28;19926;-83
2022/05/26 00:21:03;;;;;;;;;;;15.40;94.00;;;;;;4977171;28;19972;-83
2022/05/26 00:23:30;;;;;;;;;;;15.40;93.90;;;;;;4988935;28;19933;-83
2022/05/26 00:25:57;;;;;;;;;;;15.40;93.90;;;;;;4989485;28;20434;-83
2022/05/26 00:28:25;;;;;;;;;;;15.40;93.90;;;;;;4978124;28;20019;-82
2022/05/26 00:30:55;;;;;;;;;;;15.30;93.90;;;;;;4977708;28;20423;-83
2022/05/26 00:33:23;;;;;;;;;;;15.30;93.90;;;;;;4978332;28;19941;-82
2022/05/26 00:35:50;;;;;;;;;;;15.30;93.90;;;;;;4973693;28;19926;-83
2022/05/26 00:38:17;;;;;;;;;;;15.30;93.90;;;;;;4980625;28;20397;-83
2022/05/26 00:40:44;;;;;;;;;;;15.20;93.80;;;;;;4976229;28;19933;-84
2022/05/26 00:43:12;;;;;;;;;;;15.20;93.80;;;;;;4978875;28;19929;-84
2022/05/26 00:45:41;;;;;;;;;;;15.20;93.90;;;;;;4980616;28;20597;-84
2022/05/26 00:48:12;;;;;;;;;;;15.20;93.90;;;;;;4987023;28;20001;-83
2022/05/26 00:50:43;;;;;;;;;;;15.20;93.90;;;;;;4975214;28;19970;-83
2022/05/26 00:53:13;;;;;;;;;;;15.10;93.90;;;;;;4975908;28;20318;-83
2022/05/26 00:55:43;;;;;;;;;;;15.10;93.90;;;;;;4983059;28;19926;-82
2022/05/26 00:58:14;;;;;;;;;;;15.10;93.90;;;;;;4976518;28;19926;-83
2022/05/26 01:00:42;;;;;;;;;;;15.10;93.90;;;;;;4975553;28;19930;-83
2022/05/26 01:03:12;;;;;;;;;;;15.00;93.90;;;;;;4979793;28;20512;-83
2022/05/26 01:05:42;;;;;;;;;;;15.00;93.80;;;;;;4984166;28;20021;-83
2022/05/26 01:08:13;;;;;;;;;;;15.00;93.80;;;;;;4990586;28;19926;-82
2022/05/26 01:10:40;;;;;;;;;;;14.90;93.80;;;;;;4976665;28;20025;-84
2022/05/26 01:13:07;;;;;;;;;;;14.90;93.90;;;;;;4975640;28;19956;-83
2022/05/26 01:15:37;;;;;;;;;;;14.90;93.80;;;;;;4986200;28;19934;-83
2022/05/26 01:18:10;;;;;;;;;;;14.90;93.80;;;;;;4973969;28;19934;-83
2022/05/26 01:20:46;;;;;;;;;;;14.80;93.80;;;;;;4980168;28;20202;-83
2022/05/26 01:23:34;;;;;;;;;;;14.80;93.80;;;;;;4976377;28;20021;-84
2022/05/26 01:26:28;;;;;;;;;;;14.80;93.80;;;;;;4974981;28;19940;-84
2022/05/26 01:29:17;;;;;;;;;;;14.80;93.90;;;;;;4952423;28;19926;-83
2022/05/26 01:31:50;;;;;;;;;;;14.80;93.80;;;;;;4971119;28;19934;-82
2022/05/26 01:34:21;;;;;;;;;;;14.70;93.80;;;;;;4978318;28;19924;-82
2022/05/26 01:36:54;;;;;;;;;;;14.70;93.90;;;;;;4993337;28;20392;-83
2022/05/26 01:39:24;;;;;;;;;;;14.70;93.90;;;;;;4989812;28;19940;-83
2022/05/26 01:41:56;;;;;;;;;;;14.70;93.90;;;;;;5002254;28;19934;-82
2022/05/26 01:44:28;;;;;;;;;;;14.70;94.00;;;;;;4979252;28;19941;-83
2022/05/26 01:46:59;;;;;;;;;;;14.70;93.90;;;;;;4978183;28;19952;-83
2022/05/26 01:49:29;;;;;;;;;;;14.60;93.90;;;;;;4978185;28;20384;-83
2022/05/26 01:52:01;;;;;;;;;;;14.60;93.90;;;;;;4972378;28;19961;-83
2022/05/26 01:54:31;;;;;;;;;;;14.50;93.90;;;;;;4987052;28;19932;-83
2022/05/26 01:57:00;;;;;;;;;;;14.60;94.00;;;;;;4979772;28;20020;-83
2022/05/26 01:59:31;;;;;;;;;;;14.50;94.00;;;;;;4981428;28;19930;-82
2022/05/26 02:02:02;;;;;;;;;;;14.50;94.00;;;;;;4974448;28;19994;-82
2022/05/26 02:04:31;;;;;;;;;;;14.50;94.00;;;;;;4982814;28;20547;-82
2022/05/26 02:07:00;;;;;;;;;;;14.50;94.00;;;;;;4978274;28;19929;-83
2022/05/26 02:09:30;;;;;;;;;;;14.50;94.00;;;;;;4977963;28;19926;-83
2022/05/26 02:11:59;;;;;;;;;;;14.50;94.00;;;;;;4972185;28;19930;-83
2022/05/26 02:14:30;;;;;;;;;;;14.40;94.00;;;;;;4979150;28;20376;-82
2022/05/26 02:16:59;;;;;;;;;;;14.40;94.00;;;;;;4975839;28;19975;-83
2022/05/26 02:19:30;;;;;;;;;;;14.40;94.00;;;;;;5033069;22;19925;-80
2022/05/26 02:22:04;;;;;;;;;;;14.40;94.00;;;;;;4940566;28;19931;-81
2022/05/26 02:24:34;;;;;;;;;;;14.30;94.00;;;;;;5014943;28;19929;-80
2022/05/26 02:27:01;;;;;;;;;;;14.30;94.00;;;;;;4939478;28;19998;-80
2022/05/26 02:32:12;;;;;;;;;;;14.30;94.10;;;;;;4930489;28;19934;-80
2022/05/26 02:34:44;;;;;;;;;;;14.30;94.10;;;;;;4925080;28;19937;-80
2022/05/26 02:37:11;;;;;;;;;;;14.20;94.00;;;;;;4937812;28;19927;-80
2022/05/26 02:39:39;;;;;;;;;;;14.20;94.10;;;;;;4919488;28;19935;-80
2022/05/26 02:42:08;;;;;;;;;;;14.20;94.10;;;;;;4933233;28;20381;-80
2022/05/26 02:44:35;;;;;;;;;;;14.20;94.10;;;;;;4924584;28;19926;-80
2022/05/26 02:47:13;;;;;;;;;;;14.20;94.10;;;;;;4943460;28;19935;-81
2022/05/26 02:49:51;;;;;;;;;;;14.20;94.20;;;;;;4935539;28;19927;-79
2022/05/26 02:52:21;;;;;;;;;;;14.10;94.10;;;;;;4961641;28;20026;-80
2022/05/26 02:54:53;;;;;;;;;;;14.10;94.10;;;;;;4929273;28;19935;-80
2022/05/26 02:57:24;;;;;;;;;;;14.10;94.10;;;;;;4930873;28;19935;-79
2022/05/26 02:59:57;;;;;;;;;;;14.10;94.20;;;;;;4925350;28;19927;-79
2022/05/26 03:02:26;;;;;;;;;;;14.10;94.20;;;;;;4925639;28;19931;-80
2022/05/26 03:04:56;;;;;;;;;;;14.10;94.20;;;;;;4930087;28;19938;-80
2022/05/26 03:07:24;;;;;;;;;;;14.00;94.20;;;;;;4923422;28;19942;-80
2022/05/26 03:09:52;;;;;;;;;;;14.00;94.10;;;;;;4926696;28;19941;-79
2022/05/26 03:12:24;;;;;;;;;;;14.00;94.20;;;;;;4928803;28;19980;-80
2022/05/26 03:14:51;;;;;;;;;;;14.00;94.20;;;;;;4923810;28;19933;-80
2022/05/26 03:17:18;;;;;;;;;;;14.00;94.20;;;;;;4941663;28;20404;-80
2022/05/26 03:19:45;;;;;;;;;;;14.00;94.20;;;;;;4930650;28;19994;-80
2022/05/26 03:22:13;;;;;;;;;;;14.00;94.30;;;;;;4927181;28;23078;-80
2022/05/26 03:24:40;;;;;;;;;;;14.00;94.30;;;;;;4927714;28;19927;-80
2022/05/26 03:27:07;;;;;;;;;;;14.00;94.30;;;;;;4925567;28;20391;-79
2022/05/26 03:29:35;;;;;;;;;;;13.90;94.30;;;;;;4926971;28;19973;-79
2022/05/26 03:32:02;;;;;;;;;;;13.90;94.30;;;;;;4934394;28;20055;-80
2022/05/26 03:42:44;;;;;;;;;;;13.90;94.40;;;;;;4925316;28;19923;-80
2022/05/26 03:45:12;;;;;;;;;;;13.80;94.30;;;;;;4925764;28;19958;-77
2022/05/26 03:47:39;;;;;;;;;;;13.90;94.40;;;;;;4941546;28;19931;-83
2022/05/26 03:50:07;;;;;;;;;;;13.80;94.40;;;;;;4950448;28;19926;-84
2022/05/26 03:52:35;;;;;;;;;;;13.80;94.40;;;;;;4944576;28;19960;-84
2022/05/26 03:55:02;;;;;;;;;;;13.80;94.40;;;;;;4952330;28;19927;-83
2022/05/26 03:57:31;;;;;;;;;;;13.80;94.50;;;;;;4952678;28;19939;-84
2022/05/26 03:59:58;;;;;;;;;;;13.80;94.50;;;;;;4948598;28;19926;-81
2022/05/26 04:02:25;;;;;;;;;;;13.80;94.40;;;;;;4926872;28;20393;-80
2022/05/26 04:04:52;;;;;;;;;;;13.80;94.50;;;;;;4925519;28;20040;-80
2022/05/26 04:07:19;;;;;;;;;;;13.80;94.50;;;;;;4935577;28;19984;-80
2022/05/26 04:09:47;;;;;;;;;;;13.80;94.40;;;;;;4926348;28;20321;-80
2022/05/26 04:12:14;;;;;;;;;;;13.70;94.30;;;;;;4932517;28;20001;-81
2022/05/26 04:14:41;;;;;;;;;;;13.70;94.40;;;;;;4932530;28;20309;-81
2022/05/26 04:17:08;;;;;;;;;;;13.70;94.70;;;;;;4962767;28;19925;-80
2022/05/26 04:19:38;;;;;;;;;;;13.70;94.50;;;;;;4928162;28;19954;-80
2022/05/26 04:22:18;;;;;;;;;;;13.70;94.50;;;;;;4935197;29;19927;-80
2022/05/26 04:24:45;;;;;;;;;;;13.70;94.60;;;;;;4950663;28;20440;-80
2022/05/26 04:27:13;;;;;;;;;;;13.70;94.60;;;;;;4931645;28;20278;-80
2022/05/26 04:29:40;;;;;;;;;;;13.70;94.60;;;;;;4929610;28;19933;-80
2022/05/26 04:32:08;;;;;;;;;;;13.70;94.60;;;;;;4936918;29;19927;-79
2022/05/26 04:34:35;;;;;;;;;;;13.70;94.60;;;;;;4951121;28;20220;-80
2022/05/26 04:37:02;;;;;;;;;;;13.70;94.60;;;;;;4927093;28;20013;-80
2022/05/26 04:39:29;;;;;;;;;;;13.70;94.60;;;;;;5022657;28;19933;-80
2022/05/26 04:41:59;;;;;;;;;;;13.70;94.60;;;;;;4933898;28;19934;-80
2022/05/26 04:44:30;;;;;;;;;;;13.70;94.70;;;;;;4932001;28;20336;-80
2022/05/26 04:46:57;;;;;;;;;;;13.60;94.60;;;;;;4933015;28;20029;-80
2022/05/26 04:49:24;;;;;;;;;;;13.60;94.70;;;;;;4930037;28;20401;-80
2022/05/26 04:51:51;;;;;;;;;;;13.60;94.70;;;;;;4931083;28;20477;-80
2022/05/26 04:54:18;;;;;;;;;;;13.60;94.70;;;;;;4937080;28;19973;-80
2022/05/26 04:56:45;;;;;;;;;;;;;;;;;;4943328;28;19927;-80
2022/05/26 04:59:12;;;;;;;;;;;13.60;94.50;;;;;;4943478;28;19925;-80
2022/05/26 05:01:41;;;;;;;;;;;13.60;94.60;;;;;;4939251;28;20312;-79
2022/05/26 05:04:08;;;;;;;;;;;13.60;94.50;;;;;;4941915;28;19927;-80
2022/05/26 05:06:35;;;;;;;;;;;13.60;94.60;;;;;;4947563;28;19957;-80
2022/05/26 05:09:02;;;;;;;;;;;13.60;94.50;;;;;;4940162;28;20316;-80
2022/05/26 05:11:30;;;;;;;;;;;13.60;94.70;;;;;;4941669;28;20166;-80
2022/05/26 05:13:57;;;;;;;;;;;13.60;94.60;;;;;;4951307;28;19937;-80
2022/05/26 05:16:27;;;;;;;;;;;13.60;94.60;;;;;;4946299;28;19942;-80
2022/05/26 05:18:55;;;;;;;;;;;13.60;94.60;;;;;;4938707;28;20303;-80
2022/05/26 05:21:24;;;;;;;;;;;13.60;94.60;;;;;;4941584;28;19942;-80
2022/05/26 05:23:54;;;;;;;;;;;13.50;94.80;;;;;;4934181;28;19927;-80
2022/05/26 05:26:22;;;;;;;;;;;13.60;94.60;;;;;;4950660;28;19939;-80
2022/05/26 05:28:51;;;;;;;;;;;13.50;94.60;;;;;;4931404;28;20029;-80
2022/05/26 05:31:21;;;;;;;;;;;13.50;94.70;;;;;;4927571;28;19931;-80
2022/05/26 05:33:49;;;;;;;;;;;13.50;94.70;;;;;;4935061;28;19958;-80
2022/05/26 05:36:17;;;;;;;;;;;;;;;;;;4928896;28;19931;-80
2022/05/26 05:38:45;;;;;;;;;;;13.40;94.90;;;;;;4934907;28;20367;-80
2022/05/26 05:41:13;;;;;;;;;;;13.30;95.30;;;;;;4932614;28;19935;-80
2022/05/26 05:43:40;;;;;;;;;;;13.30;95.40;;;;;;4932774;28;19938;-80
2022/05/26 05:46:08;;;;;;;;;;;13.30;95.40;;;;;;4931212;28;19962;-80
2022/05/26 05:48:35;;;;;;;;;;;13.30;95.70;;;;;;4925396;28;20006;-80
2022/05/26 05:51:02;;;;;;;;;;;13.30;95.80;;;;;;4929929;28;20000;-80
2022/05/26 05:53:29;;;;;;;;;;;13.30;95.80;;;;;;4936033;28;20212;-80
2022/05/26 05:55:57;;;;;;;;;;;13.20;95.80;;;;;;4939160;28;20028;-81
2022/05/26 05:58:25;;;;;;;;;;;13.30;95.90;;;;;;4936186;28;19930;-81
2022/05/26 06:00:52;;;;;;;;;;;13.30;95.80;;;;;;4927456;28;19962;-80
2022/05/26 06:03:19;;;;;;;;;;;13.30;96.10;;;;;;4939600;28;20024;-80
2022/05/26 06:05:46;;;;;;;;;;;13.30;96.00;;;;;;4940543;28;19928;-80
2022/05/26 06:08:13;;;;;;;;;;;13.30;96.10;;;;;;4930283;28;20278;-79
2022/05/26 06:10:40;;;;;;;;;;;13.30;96.40;;;;;;4926630;28;20022;-78
2022/05/26 06:13:08;;;;;;;;;;;13.40;96.30;;;;;;4926976;28;19927;-80
2022/05/26 06:15:35;;;;;;;;;;;13.40;96.30;;;;;;4932937;28;20998;-80
2022/05/26 06:18:02;;;;;;;;;;;13.40;96.30;;;;;;4943492;28;22180;-80
2022/05/26 06:20:29;;;;;;;;;;;13.50;96.50;;;;;;4952370;28;20286;-80
2022/05/26 06:22:56;;;;;;;;;;;13.50;96.50;;;;;;4933446;28;19925;-79
2022/05/26 06:25:22;;;;;;;;;;;13.50;96.50;;;;;;4925243;28;19953;-82
2022/05/26 06:30:35;;;;;;;;;;;13.50;96.80;;;;;;4933597;28;19934;-80
2022/05/26 06:38:33;;;;;;;;;;;13.60;96.70;;;;;;4954213;28;19930;-81
2022/05/26 06:42:05;;;;;;;;;;;13.50;96.70;;;;;;4959369;28;20751;-79
2022/05/26 06:43:47;;;;;;;;;;;13.60;96.70;;;;;;4962968;28;20462;-80
2022/05/26 06:46:15;;;;;;;;;;;13.60;96.90;;;;;;4926052;28;19973;-80
2022/05/26 06:48:42;;;;;;;;;;;13.70;97.00;;;;;;4935454;28;19946;-80
2022/05/26 06:51:09;;;;;;;;;;;13.70;97.10;;;;;;4924387;28;20309;-79
2022/05/26 06:53:36;;;;;;;;;;;13.70;97.10;;;;;;4934112;28;19942;-80
2022/05/26 06:56:03;;;;;;;;;;;13.70;97.10;;;;;;4933655;28;19935;-80
2022/05/26 06:58:31;;;;;;;;;;;13.70;96.90;;;;;;4937846;28;19931;-80
2022/05/26 07:00:58;;;;;;;;;;;13.80;96.90;;;;;;4928662;28;19965;-80
2022/05/26 07:03:27;;;;;;;;;;;13.80;96.90;;;;;;4941876;28;19927;-80
2022/05/26 07:05:54;;;;;;;;;;;13.80;97.00;;;;;;4943157;28;19996;-80
2022/05/26 07:08:21;;;;;;;;;;;13.80;96.90;;;;;;4928279;28;19927;-80
2022/05/26 07:10:50;;;;;;;;;;;13.80;96.70;;;;;;4942035;28;19945;-80
2022/05/26 07:13:17;;;;;;;;;;;13.90;96.90;;;;;;4931134;28;19927;-80
2022/05/26 07:15:44;;;;;;;;;;;13.90;97.00;;;;;;4941148;28;20379;-80
2022/05/26 07:18:11;;;;;;;;;;;13.90;97.00;;;;;;5012294;28;19946;-79
2022/05/26 07:20:39;;;;;;;;;;;14.00;97.00;;;;;;4949439;28;19927;-81
2022/05/26 07:23:08;;;;;;;;;;;14.00;96.90;;;;;;4932953;28;19966;-82
2022/05/26 07:25:34;;;;;;;;;;;14.00;97.00;;;;;;4931558;28;20321;-82
2022/05/26 07:28:01;;;;;;;;;;;14.00;97.00;;;;;;4938866;28;19931;-81
2022/05/26 07:30:28;;;;;;;;;;;14.00;96.90;;;;;;4945204;28;19957;-79
2022/05/26 07:32:55;;;;;;;;;;;14.00;97.00;;;;;;4926722;28;19932;-80
2022/05/26 07:35:22;;;;;;;;;;;14.00;97.00;;;;;;4931306;28;20376;-80
2022/05/26 07:43:19;;;;;;;;;;;14.10;97.00;;;;;;4936919;28;19927;-80
2022/05/26 07:45:46;;;;;;;;;;;14.10;97.00;;;;;;4930418;28;19927;-80
2022/05/26 07:48:13;;;;;;;;;;;14.10;97.00;;;;;;4942444;28;19931;-79
2022/05/26 07:50:40;;;;;;;;;;;14.10;97.00;;;;;;4939424;28;19925;-81
2022/05/26 07:53:08;;;;;;;;;;;14.10;97.00;;;;;;4933648;28;19962;-81
2022/05/26 07:55:36;;;;;;;;;;;14.20;97.00;;;;;;4950884;28;19927;-79
2022/05/26 07:58:03;;;;;;;;;;;14.20;97.00;;;;;;4932977;28;21470;-80
2022/05/26 08:00:29;;;;;;;;;;;14.20;97.10;;;;;;4928280;28;21433;-80
2022/05/26 08:02:57;;;;;;;;;;;14.20;97.20;;;;;;4935021;28;19927;-81
2022/05/26 08:05:24;;;;;;;;;;;14.20;97.10;;;;;;4928700;28;20340;-80
2022/05/26 08:07:51;;;;;;;;;;;14.20;96.90;;;;;;4935367;28;19946;-80
2022/05/26 08:10:20;;;;;;;;;;;14.30;97.00;;;;;;5018246;28;19927;-80
2022/05/26 08:12:47;;;;;;;;;;;14.30;96.90;;;;;;4931352;28;20366;-80
2022/05/26 08:15:14;;;;;;;;;;;14.30;97.00;;;;;;4933993;28;19927;-80
2022/05/26 08:17:41;;;;;;;;;;;14.30;97.00;;;;;;4946578;28;20594;-85
2022/05/26 08:20:08;;;;;;;;;;;14.30;96.90;;;;;;4944743;28;19926;-75
2022/05/26 08:22:35;;;;;;;;;;;14.40;97.00;;;;;;5033642;22;19931;-81
2022/05/26 08:25:02;;;;;;;;;;;14.40;97.00;;;;;;5063265;28;20398;-84
2022/05/26 08:27:31;;;;;;;;;;;14.40;96.90;;;;;;5053086;28;19933;-87
2022/05/26 08:29:59;;;;;;;;;;;14.40;96.80;;;;;;5062835;28;19929;-84
2022/05/26 08:32:26;;;;;;;;;;;14.40;96.80;;;;;;5057703;28;22174;-85
2022/05/26 08:34:57;;;;;;;;;;;14.40;96.80;;;;;;5066078;28;19925;-83
2022/05/26 08:37:24;;;;;;;;;;;14.40;96.40;;;;;;5063422;28;19947;-85
2022/05/26 08:39:51;;;;;;;;;;;14.50;96.40;;;;;;5074351;28;19924;-84
2022/05/26 08:42:19;;;;;;;;;;;14.50;96.30;;;;;;5064707;28;19955;-83
2022/05/26 08:44:47;;;;;;;;;;;14.50;96.20;;;;;;5056568;28;19983;-84
2022/05/26 08:47:16;;;;;;;;;;;14.50;96.00;;;;;;5071410;28;19929;-83
2022/05/26 08:49:45;;;;;;;;;;;14.50;96.10;;;;;;5068017;28;19933;-82
2022/05/26 08:52:14;;;;;;;;;;;14.50;96.00;;;;;;5065778;28;19925;-82
2022/05/26 08:54:44;;;;;;;;;;;14.60;96.00;;;;;;5067685;28;19990;-83
2022/05/26 08:57:14;;;;;;;;;;;14.60;96.00;;;;;;5067208;28;19931;-83
2022/05/26 08:59:44;;;;;;;;;;;14.60;96.10;;;;;;5068056;28;20460;-84
2022/05/26 09:02:19;;;;;;;;;;;14.60;96.10;;;;;;5063037;28;19982;-84
2022/05/26 09:04:46;;;;;;;;;;;14.60;95.90;;;;;;5061720;28;19954;-84
2022/05/26 09:12:57;;;;;;;;;;;14.70;95.40;;;;;;5074440;28;20478;-86
2022/05/26 09:15:24;;;;;;;;;;;14.70;95.30;;;;;;5064896;28;19986;-84
2022/05/26 09:17:52;;;;;;;;;;;14.70;95.00;;;;;;5073569;28;19936;-92
2022/05/26 09:20:28;;;;;;;;;;;14.80;95.20;;;;;;5064579;28;19983;-83
2022/05/26 09:22:55;;;;;;;;;;;14.80;95.30;;;;;;5068445;28;19929;-83
2022/05/26 09:25:33;;;;;;;;;;;14.80;95.20;;;;;;5065116;28;19928;-81
2022/05/26 09:28:01;;;;;;;;;;;14.80;95.10;;;;;;5064603;28;20434;-83
2022/05/26 09:30:29;;;;;;;;;;;14.90;95.10;;;;;;5071576;28;19932;-83
2022/05/26 09:32:58;;;;;;;;;;;14.90;95.00;;;;;;5064114;28;19983;-86
2022/05/26 09:35:26;;;;;;;;;;;14.90;94.90;;;;;;5063782;28;19987;-81
2022/05/26 09:37:54;;;;;;;;;;;14.90;94.70;;;;;;5052581;28;19924;-81
2022/05/26 09:40:23;;;;;;;;;;;14.90;94.90;;;;;;5060181;28;19924;-83
2022/05/26 09:42:52;;;;;;;;;;;15.00;95.30;;;;;;5060201;28;19932;-82
2022/05/26 09:45:20;;;;;;;;;;;15.20;95.30;;;;;;5069334;28;19970;-83
2022/05/26 09:47:53;;;;;;;;;;;15.20;94.90;;;;;;5069598;28;21449;-84
2022/05/26 09:50:38;;;;;;;;;;;15.20;94.60;;;;;;5073120;28;19924;-83
2022/05/26 09:53:08;;;;;;;;;;;15.20;94.80;;;;;;5071535;28;19924;-82
2022/05/26 09:55:41;;;;;;;;;;;15.20;95.00;;;;;;5067948;28;19924;-83
2022/05/26 09:58:09;;;;;;;;;;;15.30;95.00;;;;;;5073490;28;19925;-82
2022/05/26 10:00:40;;;;;;;;;;;15.20;95.00;;;;;;5067288;28;19924;-82
2022/05/26 10:03:10;;;;;;;;;;;15.30;95.10;;;;;;5068894;28;19938;-83
2022/05/26 10:05:43;;;;;;;;;;;15.30;94.90;;;;;;5069391;28;19941;-83
2022/05/26 10:08:13;;;;;;;;;;;15.30;95.00;;;;;;5058891;28;20311;-83
2022/05/26 10:10:43;;;;;;;;;;;15.40;95.00;;;;;;5067515;28;19924;-83
2022/05/26 10:13:17;;;;;;;;;;;15.40;95.00;;;;;;5066140;28;19959;-82
2022/05/26 10:15:49;;;;;;;;;;;15.40;95.00;;;;;;5069084;28;19928;-82
2022/05/26 10:18:21;;;;;;;;;;;15.40;94.80;;;;;;5072383;28;19924;-83
2022/05/26 10:20:52;;;;;;;;;;;15.40;94.80;;;;;;5067692;28;20007;-82
2022/05/26 10:23:29;;;;;;;;;;;15.40;94.90;;;;;;5063790;28;19924;-83
2022/05/26 10:26:02;;;;;;;;;;;15.50;94.80;;;;;;5076853;28;19955;-82
2022/05/26 10:28:38;;;;;;;;;;;15.50;94.70;;;;;;5072620;28;20382;-82
2022/05/26 10:31:13;;;;;;;;;;;15.50;94.80;;;;;;5071884;28;19931;-83
2022/05/26 10:33:48;;;;;;;;;;;15.60;94.80;;;;;;5059362;28;19931;-83
2022/05/26 10:36:20;;;;;;;;;;;15.60;94.90;;;;;;5065047;28;20290;-83
2022/05/26 10:39:05;;;;;;;;;;;15.60;95.00;;;;;;5069984;28;19928;-83
2022/05/26 10:41:37;;;;;;;;;;;15.60;94.80;;;;;;5064535;28;19925;-82
2022/05/26 10:44:09;;;;;;;;;;;15.70;94.90;;;;;;5067392;28;19928;-83
2022/05/26 10:46:37;;;;;;;;;;;15.70;94.90;;;;;;5065061;28;19924;-82
2022/05/26 10:49:07;;;;;;;;;;;15.70;94.90;;;;;;5080515;28;19932;-83
2022/05/26 10:51:37;;;;;;;;;;;15.70;94.90;;;;;;5068074;28;19978;-82
2022/05/26 10:54:07;;;;;;;;;;;15.70;94.70;;;;;;5072439;28;19935;-83
2022/05/26 10:56:40;;;;;;;;;;;15.80;94.70;;;;;;5070844;28;19950;-83
2022/05/26 10:59:09;;;;;;;;;;;15.80;94.90;;;;;;5064919;28;20074;-82
2022/05/26 11:01:37;;;;;;;;;;;15.80;94.90;;;;;;5067868;28;19951;-83
2022/05/26 11:04:11;;;;;;;;;;;15.90;95.10;;;;;;5071225;28;19932;-81
2022/05/26 11:06:39;;;;;;;;;;;15.90;94.40;;;;;;5062770;28;19975;-83
2022/05/26 11:09:12;;;;;;;;;;;15.90;94.50;;;;;;5069337;28;19978;-83
2022/05/26 11:11:40;;;;;;;;;;;16.00;94.60;;;;;;5066888;28;19928;-83
2022/05/26 11:14:10;;;;;;;;;;;16.00;94.40;;;;;;5070436;28;19925;-83
2022/05/26 11:19:35;;;;;;;;;;;16.00;94.70;;;;;;5070146;28;19928;-83
2022/05/26 11:22:03;;;;;;;;;;;16.00;94.90;;;;;;5073007;28;20023;-83
2022/05/26 11:24:31;;;;;;;;;;;16.10;94.90;;;;;;5067390;28;19964;-82
2022/05/26 11:27:02;;;;;;;;;;;16.10;94.80;;;;;;5065800;28;19924;-83
2022/05/26 11:29:30;;;;;;;;;;;16.10;94.60;;;;;;5072096;28;20402;-83
2022/05/26 11:37:54;;;;;;;;;;;16.20;94.90;;;;;;5071140;28;20298;-82
2022/05/26 11:40:28;;;;;;;;;;;16.20;95.20;;;;;;5066691;28;20388;-83
2022/05/26 11:42:57;;;;;;;;;;;16.30;94.90;;;;;;5073412;28;19943;-83
2022/05/26 11:45:25;;;;;;;;;;;16.30;94.90;;;;;;5071704;28;19962;-82
2022/05/26 11:47:54;;;;;;;;;;;16.30;94.70;;;;;;5074949;28;19924;-83
2022/05/26 11:50:27;;;;;;;;;;;16.30;94.80;;;;;;5069287;28;19932;-83
2022/05/26 11:53:07;;;;;;;;;;;16.30;94.80;;;;;;5079363;28;19928;-83
2022/05/26 11:55:47;;;;;;;;;;;16.40;95.00;;;;;;5070825;28;19924;-83
2022/05/26 11:58:17;;;;;;;;;;;16.40;95.00;;;;;;5066346;28;19929;-83
2022/05/26 12:00:49;;;;;;;;;;;16.40;94.70;;;;;;5073807;28;19935;-83
2022/05/26 12:03:30;;;;;;;;;;;16.40;94.80;;;;;;5068125;28;19931;-83
2022/05/26 12:05:58;;;;;;;;;;;16.40;94.80;;;;;;5074012;28;19925;-83
2022/05/26 12:08:27;;;;;;;;;;;16.50;94.80;;;;;;5076289;28;19928;-83
2022/05/26 12:10:57;;;;;;;;;;;16.50;94.60;;;;;;5077606;28;19924;-82
2022/05/26 12:13:41;;;;;;;;;;;16.60;94.80;;;;;;5071330;28;19928;-83
2022/05/26 12:16:27;;;;;;;;;;;16.50;94.80;;;;;;5072173;28;20303;-83
2022/05/26 12:18:56;;;;;;;;;;;16.60;94.90;;;;;;5071739;28;20059;-83
2022/05/26 12:21:43;;;;;;;;;;;16.60;95.00;;;;;;5068580;28;19937;-83
2022/05/26 12:24:29;;;;;;;;;;;16.60;94.80;;;;;;5075062;28;19925;-83
2022/05/26 12:26:58;;;;;;;;;;;16.60;95.00;;;;;;5073742;28;20022;-83
2022/05/26 12:29:59;;;;;;;;;;;16.70;95.10;;;;;;5066521;28;20003;-83
2022/05/26 12:32:27;;;;;;;;;;;16.70;95.10;;;;;;5072779;28;19932;-83
2022/05/26 12:34:59;;;;;;;;;;;16.70;94.90;;;;;;5067735;28;19932;-83
2022/05/26 12:37:35;;;;;;;;;;;16.80;95.10;;;;;;5070177;28;19925;-83
2022/05/26 12:40:09;;;;;;;;;;;16.80;95.10;;;;;;5071669;28;20019;-83
2022/05/26 12:42:43;;;;;;;;;;;16.80;95.10;;;;;;5075018;28;20382;-82
2022/05/26 12:45:27;;;;;;;;;;;16.90;95.10;;;;;;5076178;28;19931;-83
2022/05/26 12:48:17;;;;;;;;;;;16.90;95.20;;;;;;5073184;28;19939;-83
2022/05/26 12:50:45;;;;;;;;;;;16.90;95.20;;;;;;5064011;28;19946;-83
2022/05/26 12:53:14;;;;;;;;;;;16.90;95.00;;;;;;5068807;28;19931;-83
2022/05/26 12:55:45;;;;;;;;;;;17.00;95.30;;;;;;5066425;28;20379;-83
2022/05/26 12:58:15;;;;;;;;;;;17.00;95.30;;;;;;5067015;28;19978;-82
2022/05/26 13:00:44;;;;;;;;;;;17.00;95.20;;;;;;5066558;28;20402;-83
2022/05/26 13:03:26;;;;;;;;;;;17.10;95.30;;;;;;5068849;28;20398;-86
2022/05/26 13:05:55;;;;;;;;;;;17.10;95.10;;;;;;5066055;28;19924;-83
2022/05/26 13:08:23;;;;;;;;;;;17.10;95.00;;;;;;5068058;28;19924;-83
2022/05/26 13:10:51;;;;;;;;;;;17.10;94.80;;;;;;5067751;28;19982;-83
2022/05/26 13:13:22;;;;;;;;;;;17.20;95.00;;;;;;5069148;28;19935;-82
2022/05/26 13:15:49;;;;;;;;;;;17.20;95.00;;;;;;5071616;28;19925;-83
2022/05/26 13:18:20;;;;;;;;;;;17.20;95.00;;;;;;5070597;28;19977;-83
2022/05/26 13:20:47;;;;;;;;;;;17.30;95.10;;;;;;5087293;28;19924;-83
2022/05/26 13:23:25;;;;;;;;;;;17.20;95.10;;;;;;5068204;28;19977;-84
2022/05/26 13:25:52;;;;;;;;;;;17.30;94.90;;;;;;5058686;28;19924;-83
2022/05/26 13:28:26;;;;;;;;;;;17.30;94.80;;;;;;5070126;28;19924;-82
2022/05/26 13:33:41;;;;;;;;;;;17.40;94.80;;;;;;5061538;28;19932;-83
2022/05/26 13:36:08;;;;;;;;;;;17.40;94.90;;;;;;5062725;28;19932;-83
2022/05/26 13:38:36;;;;;;;;;;;17.50;94.80;;;;;;5061802;28;19943;-83
2022/05/26 13:41:04;;;;;;;;;;;17.60;94.50;;;;;;5074256;28;20891;-83
2022/05/26 13:43:33;;;;;;;;;;;17.60;94.40;;;;;;5065719;28;19974;-84
2022/05/26 13:46:00;;;;;;;;;;;17.60;94.50;;;;;;5070268;28;19947;-84
2022/05/26 13:48:31;;;;;;;;;;;17.60;94.40;;;;;;5066498;28;21322;-83
2022/05/26 13:51:00;;;;;;;;;;;17.70;94.40;;;;;;5070225;28;19924;-84
2022/05/26 13:53:27;;;;;;;;;;;17.70;94.50;;;;;;5067283;28;19956;-81
2022/05/26 13:55:56;;;;;;;;;;;17.70;94.40;;;;;;5068239;28;19978;-82
2022/05/26 13:58:23;;;;;;;;;;;17.80;94.30;;;;;;5068984;28;19932;-81
2022/05/26 14:00:59;;;;;;;;;;;17.80;94.20;;;;;;5063650;28;19974;-82
2022/05/26 14:03:26;;;;;;;;;;;;;;;;;;5067756;28;19924;-82
2022/05/26 14:05:57;;;;;;;;;;;17.90;94.10;;;;;;5062247;28;19932;-83
2022/05/26 14:08:24;;;;;;;;;;;18.00;94.10;;;;;;5067039;28;19928;-82
2022/05/26 14:10:52;;;;;;;;;;;18.00;94.10;;;;;;5072611;28;20801;-81
2022/05/26 14:13:29;;;;;;;;;;;18.10;94.50;;;;;;5074404;28;19960;-82
2022/05/26 14:15:58;;;;;;;;;;;18.10;94.10;;;;;;5072020;28;19940;-82
2022/05/26 14:18:35;;;;;;;;;;;18.20;94.30;;;;;;5067085;28;20021;-81
2022/05/26 14:21:05;;;;;;;;;;;18.20;94.00;;;;;;5065780;28;19928;-81
2022/05/26 14:23:33;;;;;;;;;;;18.20;94.30;;;;;;5067350;28;19975;-81
2022/05/26 14:26:01;;;;;;;;;;;18.20;94.40;;;;;;5070721;28;19928;-85
2022/05/26 14:28:32;;;;;;;;;;;18.20;94.40;;;;;;5067818;28;19932;-84
2022/05/26 14:31:02;;;;;;;;;;;18.30;94.00;;;;;;5084293;22;20000;-87
2022/05/26 14:33:33;;;;;;;;;;;18.30;94.00;;;;;;5098257;28;20479;-89
2022/05/26 14:36:00;;;;;;;;;;;18.30;93.90;;;;;;5075183;28;19936;-88
2022/05/26 14:38:27;;;;;;;;;;;18.30;94.10;;;;;;5085352;28;20023;-84
2022/05/26 14:40:54;;;;;;;;;;;18.40;94.00;;;;;;5078764;28;19928;-87
2022/05/26 14:43:22;;;;;;;;;;;18.40;94.00;;;;;;5081509;28;19981;-90
2022/05/26 14:45:50;;;;;;;;;;;18.40;94.10;;;;;;5080108;28;19924;-92
2022/05/26 14:48:17;;;;;;;;;;;18.40;94.10;;;;;;5082873;28;19981;-90
2022/05/26 14:50:46;;;;;;;;;;;18.40;94.00;;;;;;5096195;28;20005;-89
2022/05/26 14:53:13;;;;;;;;;;;18.50;94.20;;;;;;5083509;28;19928;-89
2022/05/26 14:55:41;;;;;;;;;;;18.50;94.10;;;;;;5084688;28;20461;-89
2022/05/26 14:58:10;;;;;;;;;;;18.50;93.90;;;;;;5078397;28;20263;-90
2022/05/26 15:00:40;;;;;;;;;;;18.50;94.00;;;;;;5083851;28;19982;-89
2022/05/26 15:03:08;;;;;;;;;;;18.50;93.80;;;;;;5083735;28;19929;-89
2022/05/26 15:05:35;;;;;;;;;;;18.60;94.00;;;;;;5077253;28;19932;-89
2022/05/26 15:08:11;;;;;;;;;;;18.60;93.50;;;;;;5080883;28;19924;-88
2022/05/26 15:10:37;;;;;;;;;;;18.60;93.70;;;;;;5079890;28;19928;-87
2022/05/26 15:13:05;;;;;;;;;;;18.60;93.90;;;;;;5079468;28;19928;-91
2022/05/26 15:15:32;;;;;;;;;;;18.60;93.50;;;;;;5080672;28;19931;-88